Andover, Pennsylvania
Current Conditions -  °F | °C
As of 6:53 AM on Saturday 25 Oct 2014 (Local Time) from KHGR Reporting Station
Clear Clear  
Wind Chill: 53°   Ceiling: Unl
Heat Index: 53°   Visibility: 10mi
Dew Point: 38°   Wind: 5mph
Humidity: 57%   Direction: 210°SSW
Pressure: 29.94"   Gusts: NA
Location:  39.973°N, 77.9661°W
Report Text: KHGR 251053Z 21004KT 10SM CLR 12/03 A2994 RMK AO2 SLP150 T01170033
Loading
Personal Weather Stations






























Interactive Weather Map
Tropical Storm Tracking
New forecast layout! Learn more

10-Day Weather Forecast

Advertisements
Track Severe Weather on mobile